sensor_id;sensor_type;location;lat;lon;timestamp;pressure;altitude;pressure_sealevel;temperature
76394;BMP180;65216;51.090;-115.352;2023-09-19T00:00:58;86386.40;;;21.40
76394;BMP180;65216;51.090;-115.352;2023-09-19T00:03:25;86381.80;;;21.40
76394;BMP180;65216;51.090;-115.352;2023-09-19T00:05:52;86389.80;;;21.40
76394;BMP180;65216;51.090;-115.352;2023-09-19T00:08:19;86390.80;;;21.42
76394;BMP180;65216;51.090;-115.352;2023-09-19T00:10:51;86407.20;;;21.44
76394;BMP180;65216;51.090;-115.352;2023-09-19T00:13:20;86410.60;;;21.50
76394;BMP180;65216;51.090;-115.352;2023-09-19T00:15:48;86415.20;;;21.50
76394;BMP180;65216;51.090;-115.352;2023-09-19T00:18:20;86418.20;;;21.50
76394;BMP180;65216;51.090;-115.352;2023-09-19T00:20:48;86430.00;;;21.50
76394;BMP180;65216;51.090;-115.352;2023-09-19T00:23:19;86431.60;;;21.50
76394;BMP180;65216;51.090;-115.352;2023-09-19T00:25:46;86429.40;;;21.50
76394;BMP180;65216;51.090;-115.352;2023-09-19T00:28:13;86423.20;;;21.50
76394;BMP180;65216;51.090;-115.352;2023-09-19T00:30:46;86432.80;;;21.50
76394;BMP180;65216;51.090;-115.352;2023-09-19T00:33:21;86433.60;;;21.50
76394;BMP180;65216;51.090;-115.352;2023-09-19T00:35:50;86433.00;;;21.50
76394;BMP180;65216;51.090;-115.352;2023-09-19T00:38:19;86443.00;;;21.50
76394;BMP180;65216;51.090;-115.352;2023-09-19T00:40:50;86446.40;;;21.50
76394;BMP180;65216;51.090;-115.352;2023-09-19T00:43:23;86442.00;;;21.50
76394;BMP180;65216;51.090;-115.352;2023-09-19T00:45:52;86443.00;;;21.50
76394;BMP180;65216;51.090;-115.352;2023-09-19T00:48:25;86434.40;;;21.50
76394;BMP180;65216;51.090;-115.352;2023-09-19T00:50:58;86444.60;;;21.50
76394;BMP180;65216;51.090;-115.352;2023-09-19T00:53:31;86443.40;;;21.50
76394;BMP180;65216;51.090;-115.352;2023-09-19T00:56:00;86445.40;;;21.50
76394;BMP180;65216;51.090;-115.352;2023-09-19T00:58:31;86447.20;;;21.50
76394;BMP180;65216;51.090;-115.352;2023-09-19T01:01:00;86445.60;;;21.50
76394;BMP180;65216;51.090;-115.352;2023-09-19T01:03:28;86444.40;;;21.50
76394;BMP180;65216;51.090;-115.352;2023-09-19T01:05:55;86452.60;;;21.50
76394;BMP180;65216;51.090;-115.352;2023-09-19T01:08:22;86458.60;;;21.50
76394;BMP180;65216;51.090;-115.352;2023-09-19T01:11:00;86488.20;;;21.50
76394;BMP180;65216;51.090;-115.352;2023-09-19T01:13:52;86473.00;;;21.50
76394;BMP180;65216;51.090;-115.352;2023-09-19T01:25:50;86494.20;;;21.40
76394;BMP180;65216;51.090;-115.352;2023-09-19T01:31:12;86506.80;;;21.40
76394;BMP180;65216;51.090;-115.352;2023-09-19T01:33:58;86499.00;;;21.40
76394;BMP180;65216;51.090;-115.352;2023-09-19T01:36:33;86500.40;;;21.40
76394;BMP180;65216;51.090;-115.352;2023-09-19T01:39:11;86515.40;;;21.40
76394;BMP180;65216;51.090;-115.352;2023-09-19T01:44:44;86521.40;;;21.40
76394;BMP180;65216;51.090;-115.352;2023-09-19T01:51:06;86528.60;;;21.38
76394;BMP180;65216;51.090;-115.352;2023-09-19T01:54:00;86525.80;;;21.40
76394;BMP180;65216;51.090;-115.352;2023-09-19T01:59:35;86543.60;;;21.34
76394;BMP180;65216;51.090;-115.352;2023-09-19T02:02:06;86537.40;;;21.38
76394;BMP180;65216;51.090;-115.352;2023-09-19T02:04:43;86524.80;;;21.38
76394;BMP180;65216;51.090;-115.352;2023-09-19T02:07:10;86528.20;;;21.38
76394;BMP180;65216;51.090;-115.352;2023-09-19T02:09:40;86533.20;;;21.40
76394;BMP180;65216;51.090;-115.352;2023-09-19T02:12:11;86534.20;;;21.40
76394;BMP180;65216;51.090;-115.352;2023-09-19T02:14:39;86533.80;;;21.36
76394;BMP180;65216;51.090;-115.352;2023-09-19T02:17:07;86544.80;;;21.30
76394;BMP180;65216;51.090;-115.352;2023-09-19T02:19:37;86539.80;;;21.30
76394;BMP180;65216;51.090;-115.352;2023-09-19T02:22:05;86544.20;;;21.32
76394;BMP180;65216;51.090;-115.352;2023-09-19T02:24:39;86559.80;;;21.34
76394;BMP180;65216;51.090;-115.352;2023-09-19T02:27:06;86554.60;;;21.30
76394;BMP180;65216;51.090;-115.352;2023-09-19T02:29:34;86564.60;;;21.30
76394;BMP180;65216;51.090;-115.352;2023-09-19T02:32:01;86570.00;;;21.30
76394;BMP180;65216;51.090;-115.352;2023-09-19T02:34:29;86569.40;;;21.30
76394;BMP180;65216;51.090;-115.352;2023-09-19T02:36:58;86571.80;;;21.30
76394;BMP180;65216;51.090;-115.352;2023-09-19T02:39:26;86577.80;;;21.30
76394;BMP180;65216;51.090;-115.352;2023-09-19T02:41:54;86575.60;;;21.30
76394;BMP180;65216;51.090;-115.352;2023-09-19T02:44:21;86582.20;;;21.30
76394;BMP180;65216;51.090;-115.352;2023-09-19T02:46:49;86603.80;;;21.30
76394;BMP180;65216;51.090;-115.352;2023-09-19T02:49:19;86609.80;;;21.30
76394;BMP180;65216;51.090;-115.352;2023-09-19T02:51:45;86597.80;;;21.30
76394;BMP180;65216;51.090;-115.352;2023-09-19T02:54:13;86605.40;;;21.30
76394;BMP180;65216;51.090;-115.352;2023-09-19T02:56:43;86605.20;;;21.28
76394;BMP180;65216;51.090;-115.352;2023-09-19T02:59:13;86604.40;;;21.30
76394;BMP180;65216;51.090;-115.352;2023-09-19T03:01:43;86605.60;;;21.24
76394;BMP180;65216;51.090;-115.352;2023-09-19T03:04:15;86612.00;;;21.22
76394;BMP180;65216;51.090;-115.352;2023-09-19T03:06:49;86607.40;;;21.20
76394;BMP180;65216;51.090;-115.352;2023-09-19T03:09:17;86610.40;;;21.20
76394;BMP180;65216;51.090;-115.352;2023-09-19T03:11:45;86608.00;;;21.20
76394;BMP180;65216;51.090;-115.352;2023-09-19T03:14:13;86609.60;;;21.20
76394;BMP180;65216;51.090;-115.352;2023-09-19T03:16:42;86610.00;;;21.20
76394;BMP180;65216;51.090;-115.352;2023-09-19T03:19:10;86617.00;;;21.20
76394;BMP180;65216;51.090;-115.352;2023-09-19T03:21:38;86617.40;;;21.20
76394;BMP180;65216;51.090;-115.352;2023-09-19T03:24:05;86616.60;;;21.20
76394;BMP180;65216;51.090;-115.352;2023-09-19T03:26:35;86622.40;;;21.20
76394;BMP180;65216;51.090;-115.352;2023-09-19T03:29:04;86627.40;;;21.20
76394;BMP180;65216;51.090;-115.352;2023-09-19T03:31:36;86625.20;;;21.20
76394;BMP180;65216;51.090;-115.352;2023-09-19T03:34:03;86634.60;;;21.20
76394;BMP180;65216;51.090;-115.352;2023-09-19T03:36:31;86624.60;;;21.12
76394;BMP180;65216;51.090;-115.352;2023-09-19T03:39:01;86627.80;;;21.10
76394;BMP180;65216;51.090;-115.352;2023-09-19T03:41:32;86628.40;;;21.12
76394;BMP180;65216;51.090;-115.352;2023-09-19T03:43:59;86633.60;;;21.14
76394;BMP180;65216;51.090;-115.352;2023-09-19T03:46:29;86636.00;;;21.10
76394;BMP180;65216;51.090;-115.352;2023-09-19T03:48:56;86635.40;;;21.10
76394;BMP180;65216;51.090;-115.352;2023-09-19T03:51:23;86636.60;;;21.12
76394;BMP180;65216;51.090;-115.352;2023-09-19T03:53:50;86639.00;;;21.10
76394;BMP180;65216;51.090;-115.352;2023-09-19T03:56:17;86647.60;;;21.10
76394;BMP180;65216;51.090;-115.352;2023-09-19T03:58:43;86660.00;;;21.10
76394;BMP180;65216;51.090;-115.352;2023-09-19T04:01:10;86657.80;;;21.10
76394;BMP180;65216;51.090;-115.352;2023-09-19T04:03:39;86662.80;;;21.10
76394;BMP180;65216;51.090;-115.352;2023-09-19T04:06:15;86650.00;;;21.10
76394;BMP180;65216;51.090;-115.352;2023-09-19T04:08:44;86665.60;;;21.10
76394;BMP180;65216;51.090;-115.352;2023-09-19T04:11:11;86670.00;;;21.10
76394;BMP180;65216;51.090;-115.352;2023-09-19T04:13:37;86677.00;;;21.10
76394;BMP180;65216;51.090;-115.352;2023-09-19T04:16:05;86674.60;;;21.10
76394;BMP180;65216;51.090;-115.352;2023-09-19T04:18:33;86677.60;;;21.10
76394;BMP180;65216;51.090;-115.352;2023-09-19T04:21:04;86679.00;;;21.10
76394;BMP180;65216;51.090;-115.352;2023-09-19T04:23:33;86677.20;;;21.10
76394;BMP180;65216;51.090;-115.352;2023-09-19T04:26:02;86681.80;;;21.10
76394;BMP180;65216;51.090;-115.352;2023-09-19T04:28:32;86683.20;;;21.10
76394;BMP180;65216;51.090;-115.352;2023-09-19T04:31:01;86685.20;;;21.10
76394;BMP180;65216;51.090;-115.352;2023-09-19T04:33:28;86685.00;;;21.10
76394;BMP180;65216;51.090;-115.352;2023-09-19T04:35:55;86686.00;;;21.10
76394;BMP180;65216;51.090;-115.352;2023-09-19T04:38:22;86690.00;;;21.10
76394;BMP180;65216;51.090;-115.352;2023-09-19T04:40:49;86695.60;;;21.10
76394;BMP180;65216;51.090;-115.352;2023-09-19T04:43:16;86695.80;;;21.10
76394;BMP180;65216;51.090;-115.352;2023-09-19T04:45:43;86697.20;;;21.10
76394;BMP180;65216;51.090;-115.352;2023-09-19T04:48:13;86692.00;;;21.08
76394;BMP180;65216;51.090;-115.352;2023-09-19T04:50:42;86694.60;;;21.06
76394;BMP180;65216;51.090;-115.352;2023-09-19T04:53:10;86697.20;;;21.04
76394;BMP180;65216;51.090;-115.352;2023-09-19T04:55:37;86701.60;;;21.04
76394;BMP180;65216;51.090;-115.352;2023-09-19T04:58:04;86702.00;;;21.02
76394;BMP180;65216;51.090;-115.352;2023-09-19T05:00:30;86705.80;;;21.04
76394;BMP180;65216;51.090;-115.352;2023-09-19T05:03:01;86703.00;;;21.00
76394;BMP180;65216;51.090;-115.352;2023-09-19T05:05:30;86698.40;;;21.00
76394;BMP180;65216;51.090;-115.352;2023-09-19T05:07:57;86695.60;;;21.00
76394;BMP180;65216;51.090;-115.352;2023-09-19T05:10:25;86700.20;;;21.00
76394;BMP180;65216;51.090;-115.352;2023-09-19T05:12:55;86700.40;;;21.00
76394;BMP180;65216;51.090;-115.352;2023-09-19T05:15:22;86703.60;;;21.00
76394;BMP180;65216;51.090;-115.352;2023-09-19T05:17:51;86702.60;;;21.00
76394;BMP180;65216;51.090;-115.352;2023-09-19T05:20:21;86703.80;;;21.00
76394;BMP180;65216;51.090;-115.352;2023-09-19T05:23:06;86705.00;;;21.00
76394;BMP180;65216;51.090;-115.352;2023-09-19T05:25:39;86701.00;;;21.00
76394;BMP180;65216;51.090;-115.352;2023-09-19T05:28:11;86703.00;;;21.00
76394;BMP180;65216;51.090;-115.352;2023-09-19T05:30:41;86704.80;;;21.00
76394;BMP180;65216;51.090;-115.352;2023-09-19T05:33:11;86710.40;;;21.00
76394;BMP180;65216;51.090;-115.352;2023-09-19T05:35:38;86709.00;;;21.00
76394;BMP180;65216;51.090;-115.352;2023-09-19T05:38:06;86711.20;;;21.00
76394;BMP180;65216;51.090;-115.352;2023-09-19T05:40:35;86709.80;;;21.00
76394;BMP180;65216;51.090;-115.352;2023-09-19T05:43:02;86715.20;;;21.00
76394;BMP180;65216;51.090;-115.352;2023-09-19T05:45:32;86721.60;;;21.00
76394;BMP180;65216;51.090;-115.352;2023-09-19T05:48:13;86726.20;;;21.00
76394;BMP180;65216;51.090;-115.352;2023-09-19T05:50:42;86722.20;;;21.00
76394;BMP180;65216;51.090;-115.352;2023-09-19T05:53:10;86721.60;;;21.00
76394;BMP180;65216;51.090;-115.352;2023-09-19T05:55:41;86728.20;;;21.00
76394;BMP180;65216;51.090;-115.352;2023-09-19T05:58:08;86725.00;;;21.00
76394;BMP180;65216;51.090;-115.352;2023-09-19T06:00:36;86729.40;;;21.00
76394;BMP180;65216;51.090;-115.352;2023-09-19T06:03:03;86727.20;;;21.00
76394;BMP180;65216;51.090;-115.352;2023-09-19T06:05:31;86732.40;;;21.00
76394;BMP180;65216;51.090;-115.352;2023-09-19T06:07:58;86735.60;;;21.00
76394;BMP180;65216;51.090;-115.352;2023-09-19T06:10:34;86734.20;;;21.00
76394;BMP180;65216;51.090;-115.352;2023-09-19T06:13:05;86736.40;;;21.00
76394;BMP180;65216;51.090;-115.352;2023-09-19T06:15:32;86741.00;;;21.00
76394;BMP180;65216;51.090;-115.352;2023-09-19T06:17:59;86740.80;;;21.00
76394;BMP180;65216;51.090;-115.352;2023-09-19T06:20:28;86744.80;;;21.00
76394;BMP180;65216;51.090;-115.352;2023-09-19T06:22:57;86747.00;;;21.00
76394;BMP180;65216;51.090;-115.352;2023-09-19T06:25:24;86748.60;;;21.00
76394;BMP180;65216;51.090;-115.352;2023-09-19T06:27:54;86755.40;;;21.00
76394;BMP180;65216;51.090;-115.352;2023-09-19T06:30:24;86759.80;;;21.00
76394;BMP180;65216;51.090;-115.352;2023-09-19T06:33:00;86760.80;;;21.00
76394;BMP180;65216;51.090;-115.352;2023-09-19T06:35:32;86758.00;;;20.94
76394;BMP180;65216;51.090;-115.352;2023-09-19T06:38:02;86760.00;;;21.00
76394;BMP180;65216;51.090;-115.352;2023-09-19T06:40:30;86763.40;;;20.92
76394;BMP180;65216;51.090;-115.352;2023-09-19T06:42:57;86767.20;;;20.96
76394;BMP180;65216;51.090;-115.352;2023-09-19T06:45:24;86769.20;;;20.92
76394;BMP180;65216;51.090;-115.352;2023-09-19T06:47:53;86766.80;;;20.90
76394;BMP180;65216;51.090;-115.352;2023-09-19T06:50:24;86764.40;;;20.90
76394;BMP180;65216;51.090;-115.352;2023-09-19T06:52:54;86767.20;;;20.90
76394;BMP180;65216;51.090;-115.352;2023-09-19T06:55:22;86770.80;;;20.90
76394;BMP180;65216;51.090;-115.352;2023-09-19T06:57:54;86768.80;;;20.92
76394;BMP180;65216;51.090;-115.352;2023-09-19T07:00:21;86764.00;;;20.90
76394;BMP180;65216;51.090;-115.352;2023-09-19T07:03:02;86766.80;;;20.90
76394;BMP180;65216;51.090;-115.352;2023-09-19T07:05:34;86768.60;;;20.92
76394;BMP180;65216;51.090;-115.352;2023-09-19T07:08:07;86773.00;;;20.96
76394;BMP180;65216;51.090;-115.352;2023-09-19T07:10:36;86770.00;;;20.90
76394;BMP180;65216;51.090;-115.352;2023-09-19T07:13:05;86779.40;;;20.92
76394;BMP180;65216;51.090;-115.352;2023-09-19T07:15:38;86776.40;;;20.90
76394;BMP180;65216;51.090;-115.352;2023-09-19T07:18:08;86781.80;;;20.90
76394;BMP180;65216;51.090;-115.352;2023-09-19T07:20:37;86784.00;;;20.90
76394;BMP180;65216;51.090;-115.352;2023-09-19T07:23:04;86787.60;;;20.90
76394;BMP180;65216;51.090;-115.352;2023-09-19T07:25:32;86790.40;;;20.94
76394;BMP180;65216;51.090;-115.352;2023-09-19T07:27:59;86793.00;;;20.90
76394;BMP180;65216;51.090;-115.352;2023-09-19T07:30:27;86787.80;;;20.90
76394;BMP180;65216;51.090;-115.352;2023-09-19T07:32:57;86786.60;;;20.92
76394;BMP180;65216;51.090;-115.352;2023-09-19T07:35:27;86783.40;;;20.90
76394;BMP180;65216;51.090;-115.352;2023-09-19T07:37:54;86783.60;;;20.90
76394;BMP180;65216;51.090;-115.352;2023-09-19T07:40:22;86794.00;;;20.90
76394;BMP180;65216;51.090;-115.352;2023-09-19T07:42:56;86803.60;;;20.90
76394;BMP180;65216;51.090;-115.352;2023-09-19T07:45:23;86809.20;;;20.90
76394;BMP180;65216;51.090;-115.352;2023-09-19T07:47:51;86805.40;;;20.90
76394;BMP180;65216;51.090;-115.352;2023-09-19T07:50:19;86801.40;;;20.90
76394;BMP180;65216;51.090;-115.352;2023-09-19T07:52:48;86803.40;;;20.90
76394;BMP180;65216;51.090;-115.352;2023-09-19T07:55:17;86805.20;;;20.90
76394;BMP180;65216;51.090;-115.352;2023-09-19T07:57:46;86809.20;;;20.90
76394;BMP180;65216;51.090;-115.352;2023-09-19T08:00:14;86811.80;;;20.90
76394;BMP180;65216;51.090;-115.352;2023-09-19T08:02:41;86817.60;;;20.90
76394;BMP180;65216;51.090;-115.352;2023-09-19T08:05:11;86825.80;;;20.90
76394;BMP180;65216;51.090;-115.352;2023-09-19T08:07:39;86825.00;;;20.90
76394;BMP180;65216;51.090;-115.352;2023-09-19T08:10:08;86830.60;;;20.90
76394;BMP180;65216;51.090;-115.352;2023-09-19T08:12:41;86827.00;;;20.90
76394;BMP180;65216;51.090;-115.352;2023-09-19T08:15:22;86825.60;;;20.90
76394;BMP180;65216;51.090;-115.352;2023-09-19T08:17:49;86826.20;;;20.90
76394;BMP180;65216;51.090;-115.352;2023-09-19T08:20:16;86821.80;;;20.90
76394;BMP180;65216;51.090;-115.352;2023-09-19T08:22:50;86819.60;;;20.90
76394;BMP180;65216;51.090;-115.352;2023-09-19T08:25:19;86818.80;;;20.90
76394;BMP180;65216;51.090;-115.352;2023-09-19T08:27:47;86822.00;;;20.90
76394;BMP180;65216;51.090;-115.352;2023-09-19T08:30:20;86827.00;;;20.94
76394;BMP180;65216;51.090;-115.352;2023-09-19T08:33:00;86830.60;;;20.90
76394;BMP180;65216;51.090;-115.352;2023-09-19T08:35:27;86831.60;;;20.92
76394;BMP180;65216;51.090;-115.352;2023-09-19T08:37:54;86830.00;;;20.92
76394;BMP180;65216;51.090;-115.352;2023-09-19T08:40:22;86827.60;;;20.90
76394;BMP180;65216;51.090;-115.352;2023-09-19T08:42:55;86825.60;;;20.90
76394;BMP180;65216;51.090;-115.352;2023-09-19T08:45:24;86820.60;;;20.90
76394;BMP180;65216;51.090;-115.352;2023-09-19T08:48:23;86825.60;;;20.92
76394;BMP180;65216;51.090;-115.352;2023-09-19T08:51:12;86821.80;;;20.90
76394;BMP180;65216;51.090;-115.352;2023-09-19T08:54:08;86829.20;;;20.90
76394;BMP180;65216;51.090;-115.352;2023-09-19T08:56:41;86827.00;;;20.90
76394;BMP180;65216;51.090;-115.352;2023-09-19T08:59:10;86827.60;;;20.90
76394;BMP180;65216;51.090;-115.352;2023-09-19T09:01:39;86823.60;;;20.90
76394;BMP180;65216;51.090;-115.352;2023-09-19T09:04:11;86825.60;;;20.90
76394;BMP180;65216;51.090;-115.352;2023-09-19T09:06:41;86822.60;;;20.90
76394;BMP180;65216;51.090;-115.352;2023-09-19T09:09:10;86820.60;;;20.90
76394;BMP180;65216;51.090;-115.352;2023-09-19T09:11:38;86818.60;;;20.90
76394;BMP180;65216;51.090;-115.352;2023-09-19T09:14:09;86816.00;;;20.90
76394;BMP180;65216;51.090;-115.352;2023-09-19T09:16:39;86815.20;;;20.90
76394;BMP180;65216;51.090;-115.352;2023-09-19T09:19:06;86817.00;;;20.90
76394;BMP180;65216;51.090;-115.352;2023-09-19T09:21:33;86815.60;;;20.90
76394;BMP180;65216;51.090;-115.352;2023-09-19T09:24:56;86814.80;;;20.90
76394;BMP180;65216;51.090;-115.352;2023-09-19T09:27:32;86811.20;;;20.90
76394;BMP180;65216;51.090;-115.352;2023-09-19T09:30:00;86809.00;;;20.90
76394;BMP180;65216;51.090;-115.352;2023-09-19T09:32:30;86813.00;;;20.90
76394;BMP180;65216;51.090;-115.352;2023-09-19T09:35:08;86812.60;;;20.90
76394;BMP180;65216;51.090;-115.352;2023-09-19T09:37:36;86815.00;;;20.90
76394;BMP180;65216;51.090;-115.352;2023-09-19T09:40:05;86811.80;;;20.90
76394;BMP180;65216;51.090;-115.352;2023-09-19T09:42:46;86817.60;;;20.90
76394;BMP180;65216;51.090;-115.352;2023-09-19T09:45:24;86811.80;;;20.90
76394;BMP180;65216;51.090;-115.352;2023-09-19T09:48:13;86810.40;;;20.90
76394;BMP180;65216;51.090;-115.352;2023-09-19T09:50:49;86810.00;;;20.90
76394;BMP180;65216;51.090;-115.352;2023-09-19T09:53:29;86810.60;;;20.90
76394;BMP180;65216;51.090;-115.352;2023-09-19T09:56:05;86812.00;;;20.90
76394;BMP180;65216;51.090;-115.352;2023-09-19T09:58:57;86814.20;;;20.90
76394;BMP180;65216;51.090;-115.352;2023-09-19T10:01:25;86815.80;;;20.90
76394;BMP180;65216;51.090;-115.352;2023-09-19T10:04:00;86819.20;;;20.90
76394;BMP180;65216;51.090;-115.352;2023-09-19T10:06:40;86817.00;;;20.90
76394;BMP180;65216;51.090;-115.352;2023-09-19T10:09:14;86815.60;;;20.90
76394;BMP180;65216;51.090;-115.352;2023-09-19T10:11:48;86813.00;;;20.90
76394;BMP180;65216;51.090;-115.352;2023-09-19T10:14:30;86815.60;;;20.90
76394;BMP180;65216;51.090;-115.352;2023-09-19T10:17:05;86819.80;;;20.88
76394;BMP180;65216;51.090;-115.352;2023-09-19T10:19:50;86822.20;;;20.82
76394;BMP180;65216;51.090;-115.352;2023-09-19T10:22:26;86824.60;;;20.80
76394;BMP180;65216;51.090;-115.352;2023-09-19T10:24:57;86828.80;;;20.80
76394;BMP180;65216;51.090;-115.352;2023-09-19T10:27:29;86826.00;;;20.82
76394;BMP180;65216;51.090;-115.352;2023-09-19T10:30:06;86825.60;;;20.82
76394;BMP180;65216;51.090;-115.352;2023-09-19T10:32:40;86831.60;;;20.80
76394;BMP180;65216;51.090;-115.352;2023-09-19T10:35:08;86832.40;;;20.90
76394;BMP180;65216;51.090;-115.352;2023-09-19T10:37:38;86838.00;;;20.88
76394;BMP180;65216;51.090;-115.352;2023-09-19T10:40:08;86839.20;;;20.90
76394;BMP180;65216;51.090;-115.352;2023-09-19T10:42:40;86840.80;;;20.90
76394;BMP180;65216;51.090;-115.352;2023-09-19T10:45:13;86841.20;;;20.90
76394;BMP180;65216;51.090;-115.352;2023-09-19T10:47:42;86841.00;;;20.90
76394;BMP180;65216;51.090;-115.352;2023-09-19T10:50:09;86842.80;;;20.90
76394;BMP180;65216;51.090;-115.352;2023-09-19T10:52:49;86839.80;;;20.90
76394;BMP180;65216;51.090;-115.352;2023-09-19T10:55:19;86841.20;;;20.90
76394;BMP180;65216;51.090;-115.352;2023-09-19T10:57:49;86844.00;;;20.90
76394;BMP180;65216;51.090;-115.352;2023-09-19T11:00:17;86843.40;;;20.90
76394;BMP180;65216;51.090;-115.352;2023-09-19T11:05:42;86856.00;;;20.90
76394;BMP180;65216;51.090;-115.352;2023-09-19T11:08:11;86853.40;;;20.80
76394;BMP180;65216;51.090;-115.352;2023-09-19T11:10:46;86852.60;;;20.80
76394;BMP180;65216;51.090;-115.352;2023-09-19T11:13:29;86854.80;;;20.80
76394;BMP180;65216;51.090;-115.352;2023-09-19T11:26:56;86860.80;;;20.70
76394;BMP180;65216;51.090;-115.352;2023-09-19T11:29:37;86852.80;;;20.70
76394;BMP180;65216;51.090;-115.352;2023-09-19T11:32:10;86856.80;;;20.70
76394;BMP180;65216;51.090;-115.352;2023-09-19T11:34:44;86859.60;;;20.70
76394;BMP180;65216;51.090;-115.352;2023-09-19T11:40:11;86859.00;;;20.70
76394;BMP180;65216;51.090;-115.352;2023-09-19T11:42:46;86855.60;;;20.70
76394;BMP180;65216;51.090;-115.352;2023-09-19T11:48:24;86859.40;;;20.70
76394;BMP180;65216;51.090;-115.352;2023-09-19T11:50:53;86859.40;;;20.70
76394;BMP180;65216;51.090;-115.352;2023-09-19T11:53:23;86856.60;;;20.70
76394;BMP180;65216;51.090;-115.352;2023-09-19T11:55:50;86857.20;;;20.70
76394;BMP180;65216;51.090;-115.352;2023-09-19T11:58:19;86860.60;;;20.70
76394;BMP180;65216;51.090;-115.352;2023-09-19T12:00:54;86862.80;;;20.70
76394;BMP180;65216;51.090;-115.352;2023-09-19T12:03:30;86855.40;;;20.70
76394;BMP180;65216;51.090;-115.352;2023-09-19T12:05:59;86864.20;;;20.70
76394;BMP180;65216;51.090;-115.352;2023-09-19T12:08:29;86860.20;;;20.70
76394;BMP180;65216;51.090;-115.352;2023-09-19T12:10:57;86862.80;;;20.70
76394;BMP180;65216;51.090;-115.352;2023-09-19T12:13:27;86870.80;;;20.70
76394;BMP180;65216;51.090;-115.352;2023-09-19T12:15:56;86872.40;;;20.70
76394;BMP180;65216;51.090;-115.352;2023-09-19T12:18:30;86869.40;;;20.70
76394;BMP180;65216;51.090;-115.352;2023-09-19T12:20:58;86862.40;;;20.70
76394;BMP180;65216;51.090;-115.352;2023-09-19T12:23:25;86867.80;;;20.70
76394;BMP180;65216;51.090;-115.352;2023-09-19T12:25:53;86865.40;;;20.72
76394;BMP180;65216;51.090;-115.352;2023-09-19T12:28:27;86856.20;;;20.70
76394;BMP180;65216;51.090;-115.352;2023-09-19T12:30:57;86861.20;;;20.74
76394;BMP180;65216;51.090;-115.352;2023-09-19T12:33:35;86861.40;;;20.72
76394;BMP180;65216;51.090;-115.352;2023-09-19T12:36:35;86864.80;;;20.74
76394;BMP180;65216;51.090;-115.352;2023-09-19T12:39:04;86859.00;;;20.78
76394;BMP180;65216;51.090;-115.352;2023-09-19T12:41:36;86853.80;;;20.70
76394;BMP180;65216;51.090;-115.352;2023-09-19T12:44:04;86854.60;;;20.72
76394;BMP180;65216;51.090;-115.352;2023-09-19T12:46:36;86853.00;;;20.70
76394;BMP180;65216;51.090;-115.352;2023-09-19T12:49:21;86857.80;;;20.70
76394;BMP180;65216;51.090;-115.352;2023-09-19T12:51:54;86860.00;;;20.70
76394;BMP180;65216;51.090;-115.352;2023-09-19T12:54:23;86864.80;;;20.70
76394;BMP180;65216;51.090;-115.352;2023-09-19T12:56:52;86862.80;;;20.70
76394;BMP180;65216;51.090;-115.352;2023-09-19T12:59:30;86868.00;;;20.70
76394;BMP180;65216;51.090;-115.352;2023-09-19T13:02:05;86867.40;;;20.70
76394;BMP180;65216;51.090;-115.352;2023-09-19T13:04:36;86862.60;;;20.72
76394;BMP180;65216;51.090;-115.352;2023-09-19T13:07:08;86854.40;;;20.72
76394;BMP180;65216;51.090;-115.352;2023-09-19T13:10:06;86850.00;;;20.72
76394;BMP180;65216;51.090;-115.352;2023-09-19T13:12:37;86857.60;;;20.70
76394;BMP180;65216;51.090;-115.352;2023-09-19T13:15:12;86853.80;;;20.72
76394;BMP180;65216;51.090;-115.352;2023-09-19T13:17:51;86854.00;;;20.76
76394;BMP180;65216;51.090;-115.352;2023-09-19T13:20:24;86857.60;;;20.74
76394;BMP180;65216;51.090;-115.352;2023-09-19T13:22:55;86853.20;;;20.78
76394;BMP180;65216;51.090;-115.352;2023-09-19T13:25:35;86857.40;;;20.78
76394;BMP180;65216;51.090;-115.352;2023-09-19T13:28:05;86846.40;;;20.80
76394;BMP180;65216;51.090;-115.352;2023-09-19T13:30:38;86855.20;;;20.80
76394;BMP180;65216;51.090;-115.352;2023-09-19T13:33:12;86855.80;;;20.80
76394;BMP180;65216;51.090;-115.352;2023-09-19T13:35:45;86861.60;;;20.80
76394;BMP180;65216;51.090;-115.352;2023-09-19T13:38:15;86858.40;;;20.80
76394;BMP180;65216;51.090;-115.352;2023-09-19T13:40:42;86853.00;;;20.80
76394;BMP180;65216;51.090;-115.352;2023-09-19T13:43:09;86849.40;;;20.80
76394;BMP180;65216;51.090;-115.352;2023-09-19T13:45:37;86852.40;;;20.80
76394;BMP180;65216;51.090;-115.352;2023-09-19T13:48:04;86843.40;;;20.80
76394;BMP180;65216;51.090;-115.352;2023-09-19T13:50:31;86849.20;;;20.80
76394;BMP180;65216;51.090;-115.352;2023-09-19T13:52:58;86844.80;;;20.80
76394;BMP180;65216;51.090;-115.352;2023-09-19T13:55:29;86843.40;;;20.80
76394;BMP180;65216;51.090;-115.352;2023-09-19T13:57:55;86843.80;;;20.80
76394;BMP180;65216;51.090;-115.352;2023-09-19T14:00:24;86836.40;;;20.80
76394;BMP180;65216;51.090;-115.352;2023-09-19T14:02:51;86840.00;;;20.80
76394;BMP180;65216;51.090;-115.352;2023-09-19T14:05:18;86829.60;;;20.80
76394;BMP180;65216;51.090;-115.352;2023-09-19T14:07:48;86838.80;;;20.80
76394;BMP180;65216;51.090;-115.352;2023-09-19T14:10:15;86832.80;;;20.80
76394;BMP180;65216;51.090;-115.352;2023-09-19T14:12:48;86830.80;;;20.80
76394;BMP180;65216;51.090;-115.352;2023-09-19T14:15:15;86836.80;;;20.80
76394;BMP180;65216;51.090;-115.352;2023-09-19T14:17:42;86842.00;;;20.82
76394;BMP180;65216;51.090;-115.352;2023-09-19T14:20:09;86843.60;;;20.82
76394;BMP180;65216;51.090;-115.352;2023-09-19T14:22:37;86840.00;;;20.84
76394;BMP180;65216;51.090;-115.352;2023-09-19T14:25:05;86830.40;;;20.84
76394;BMP180;65216;51.090;-115.352;2023-09-19T14:27:37;86838.80;;;20.80
76394;BMP180;65216;51.090;-115.352;2023-09-19T14:30:10;86838.60;;;20.86
76394;BMP180;65216;51.090;-115.352;2023-09-19T14:32:37;86838.80;;;20.90
76394;BMP180;65216;51.090;-115.352;2023-09-19T14:35:07;86837.80;;;20.90